Terminal Aerodrome Forecast
Issued by NWS Cleveland, OH

Home | Current Version | Previous Version | Graphics & Text | Print | Product List | Glossary Off
Versions: 1 2 3 4 5 6 7 8 9 10 11 12 13 14 15 16 17 18 19 20 21 22 23 24 25 26 27

000
FTUS41 KCLE 240531
TAFCLE
TAF
KCLE 240531Z 2406/2512 24004KT P6SM VCSH FEW020 BKN100
     FM241000 28006KT 6SM BR VCSH SCT015 BKN100
     FM241400 30010KT P6SM VCSH BKN015
     FM241700 32014KT P6SM BKN020
     FM242000 33014KT P6SM BKN035
     FM250600 36007KT P6SM SCT035=

USA.gov is the U.S. government's official web portal to all federal, state and local government web resources and services.